Oval Lp No.11 — JL6306 — position and weather

sailwx.info

Track history (hours):
 
Tides and Currents Weather Stations Pressure Air Temp Water Temp Dewpoint Dewpoint Depression Visibility Wind Speed Wind Dir Waves Ship Positions

Oval Lp No.11

Last reported at 2015-Jul-27 14:10 UTC. Time now 2015-Jul-28 21:43 UTC.
Position N 33°59' E 135°00'.

Length 67 m; draft 3.6 m.

Type: Ship (hazmat cat A). MMSI: 431500366.

Date/timePositionNaut miles runAvg speedWind from/ knotsBaromVisibWave heightAir tempDewpointWater temp
2015-Jul-27 14:10N 33°59' E 135°00'711.2
2015-Jul-27 13:31N 34°06' E 134°59'1211.9
2015-Jul-27 12:32N 34°18' E 134°59'1110.9
2015-Jul-27 11:33N 34°26' E 135°07'1111.4
2015-Jul-27 10:33N 34°33' E 135°18'7 6.7
2015-Jul-27 09:32N 34°35' E 135°26'0 0.0
2015-Jul-27 06:26N 34°35' E 135°26'1 0.3
2015-Jul-27 04:33N 34°35' E 135°25'2 2.1
2015-Jul-27 03:33N 34°36' E 135°23'3 0.5
2015-Jul-26 22:32N 34°34' E 135°26'3 1.2
2015-Jul-26 20:15N 34°36' E 135°23'710.0
2015-Jul-26 19:33N 34°32' E 135°16'1211.9
2015-Jul-26 18:33N 34°23' E 135°06'1110.7
2015-Jul-26 17:33N 34°14' E 134°60'228 8.1
2015-Jul-25 13:30N 35°02' E 139°30'1010.5
2015-Jul-25 12:33N 35°07' E 139°41'1010.2
2015-Jul-25 11:34N 35°16' E 139°45'10 9.8
2015-Jul-25 10:34N 35°26' E 139°45'1110.8
2015-Jul-25 09:33N 35°31' E 139°56'7 6.5
2015-Jul-25 08:28N 35°33' E 140°05'0 0.0
2015-Jul-25 07:31N 35°33' E 140°05'0 0.0
2015-Jul-25 06:25N 35°33' E 140°05'0 0.0
2015-Jul-25 05:19N 35°33' E 140°05'0 0.0
2015-Jul-25 04:31N 35°33' E 140°05'8 7.9
2015-Jul-25 03:33N 35°30' E 139°56'1111.3
2015-Jul-25 02:33N 35°23' E 139°46'1010.4
2015-Jul-25 01:33N 35°13' E 139°47'1111.2
2015-Jul-25 00:33N 35°03' E 139°41'11 0.3
2015-Jul-23 11:29N 34°60' E 139°27'910.1
2015-Jul-23 10:34N 35°05' E 139°37'1010.4
2015-Jul-23 09:34N 35°12' E 139°46'1010.0
2015-Jul-23 08:34N 35°22' E 139°43'10 9.9
2015-Jul-23 07:34N 35°29' E 139°50'1010.1
2015-Jul-23 06:33N 35°33' E 140°02'3 2.6
2015-Jul-23 05:33N 35°33' E 140°05'0 0.0
2015-Jul-23 04:21N 35°33' E 140°05'0 0.0
2015-Jul-23 03:30N 35°33' E 140°05'0 0.0
2015-Jul-23 02:27N 35°33' E 140°05'1 1.0
2015-Jul-23 01:24N 35°34' E 140°05'0 0.0
2015-Jul-23 00:33N 35°34' E 140°05'0 0.0
2015-Jul-22 23:24N 35°34' E 140°05'0 0.0
2015-Jul-22 22:30N 35°34' E 140°05'0 0.0
2015-Jul-22 21:27N 35°34' E 140°05'0 0.0
2015-Jul-22 20:12N 35°34' E 140°05'0 0.0
2015-Jul-22 19:30N 35°34' E 140°05'0 0.0
2015-Jul-22 18:24N 35°34' E 140°05'0 0.0
2015-Jul-22 17:24N 35°34' E 140°05'0 0.0
2015-Jul-22 16:24N 35°34' E 140°05'0 0.0
2015-Jul-22 15:33N 35°34' E 140°05'0 0.0
2015-Jul-22 14:33N 35°34' E 140°05'0 0.0
2015-Jul-22 13:24N 35°34' E 140°05'0 0.0
2015-Jul-22 12:30N 35°34' E 140°05'0 0.0
2015-Jul-22 11:24N 35°34' E 140°05'0 0.0
2015-Jul-22 10:30N 35°34' E 140°05'0 0.0
2015-Jul-22 09:27N 35°34' E 140°05'0 0.0
2015-Jul-22 08:30N 35°34' E 140°05'0 0.0
2015-Jul-22 06:30N 35°34' E 140°05'0 0.0
2015-Jul-22 05:33N 35°34' E 140°05'0 0.0
2015-Jul-22 04:33N 35°34' E 140°05'4 4.1
2015-Jul-22 03:32N 35°34' E 140°00'4 4.3
2015-Jul-22 02:31N 35°33' E 140°05'0 0.0
2015-Jul-22 01:25N 35°33' E 140°05'0 0.0
2015-Jul-22 00:31N 35°33' E 140°05'1 0.8
2015-Jul-21 23:33N 35°33' E 140°05'7 7.4
2015-Jul-21 22:33N 35°30' E 139°56'1111.4
2015-Jul-21 21:33N 35°23' E 139°46'1110.8
2015-Jul-21 20:33N 35°12' E 139°46'1211.0
2015-Jul-21 19:30N 35°03' E 139°38'1313.7
2015-Jul-21 18:31N 34°54' E 139°25'224 6.4
2015-Jul-20 07:28N 33°59' E 135°01'910.2
2015-Jul-20 06:33N 34°08' E 134°60'1210.9
2015-Jul-20 05:30N 34°19' E 134°59'1010.8
2015-Jul-20 04:33N 34°26' E 135°08'1111.1
2015-Jul-20 03:33N 34°33' E 135°19'6 1.1
2015-Jul-19 22:33N 34°34' E 135°26'3 2.0
2015-Jul-19 21:16N 34°36' E 135°23'0 0.1
2015-Jul-19 20:28N 34°36' E 135°23'0 0.0
2015-Jul-19 19:22N 34°36' E 135°23'0 0.0
2015-Jul-19 18:22N 34°36' E 135°23'0 0.0
2015-Jul-19 16:28N 34°36' E 135°23'1 1.4
2015-Jul-19 15:33N 34°35' E 135°22'1111.5
2015-Jul-19 14:33N 34°27' E 135°12'1512.0
2015-Jul-19 13:20N 34°17' E 134°59'1012.7
2015-Jul-19 12:32N 34°07' E 135°01'231 8.2
2015-Jul-18 08:20N 35°03' E 139°33'810.1
2015-Jul-18 07:33N 35°07' E 139°42'9 9.3
2015-Jul-18 06:33N 35°15' E 139°46'9 9.4
2015-Jul-18 05:33N 35°25' E 139°43'1010.4
2015-Jul-18 04:33N 35°30' E 139°54'9 9.5
2015-Jul-18 03:33N 35°33' E 140°05'0 0.4
2015-Jul-18 02:22N 35°34' E 140°05'0 0.0
2015-Jul-18 01:22N 35°34' E 140°05'0 0.1
2015-Jul-18 00:29N 35°34' E 140°05'0 0.0
2015-Jul-17 23:29N 35°34' E 140°05'0 0.0
2015-Jul-17 22:26N 35°34' E 140°05'0 0.0
2015-Jul-17 21:29N 35°34' E 140°05'0 0.0
2015-Jul-17 20:29N 35°34' E 140°05'0 0.0
2015-Jul-17 19:29N 35°34' E 140°05'0 0.0
2015-Jul-17 18:20N 35°34' E 140°05'0 0.0
2015-Jul-17 15:28N 35°33' E 140°05'0 0.0
2015-Jul-17 14:17N 35°34' E 140°05'  
Track history (hours):
 
Tides and Currents Weather Stations Pressure Air Temp Water Temp Dewpoint Dewpoint Depression Visibility Wind Speed Wind Dir Waves Ship Positions

Oval Lp No.11

Last reported at 2015-Jul-27 14:10 UTC. Time now 2015-Jul-28 21:43 UTC.
Position N 33°59' E 135°00'.

Length 67 m; draft 3.6 m.

Type: Ship (hazmat cat A). MMSI: 431500366.

Date/timePositionNaut miles runAvg speedWind from/ knotsBaromVisibWave heightAir tempDewpointWater temp
2015-Jul-27 14:10N 33°59' E 135°00'711.2
2015-Jul-27 13:31N 34°06' E 134°59'1211.9
2015-Jul-27 12:32N 34°18' E 134°59'1110.9
2015-Jul-27 11:33N 34°26' E 135°07'1111.4
2015-Jul-27 10:33N 34°33' E 135°18'7 6.7
2015-Jul-27 09:32N 34°35' E 135°26'0 0.0
2015-Jul-27 06:26N 34°35' E 135°26'1 0.3
2015-Jul-27 04:33N 34°35' E 135°25'2 2.1
2015-Jul-27 03:33N 34°36' E 135°23'3 0.5
2015-Jul-26 22:32N 34°34' E 135°26'3 1.2
2015-Jul-26 20:15N 34°36' E 135°23'710.0
2015-Jul-26 19:33N 34°32' E 135°16'1211.9
2015-Jul-26 18:33N 34°23' E 135°06'1110.7
2015-Jul-26 17:33N 34°14' E 134°60'228 8.1
2015-Jul-25 13:30N 35°02' E 139°30'1010.5
2015-Jul-25 12:33N 35°07' E 139°41'1010.2
2015-Jul-25 11:34N 35°16' E 139°45'10 9.8
2015-Jul-25 10:34N 35°26' E 139°45'1110.8
2015-Jul-25 09:33N 35°31' E 139°56'7 6.5
2015-Jul-25 08:28N 35°33' E 140°05'0 0.0
2015-Jul-25 07:31N 35°33' E 140°05'0 0.0
2015-Jul-25 06:25N 35°33' E 140°05'0 0.0
2015-Jul-25 05:19N 35°33' E 140°05'0 0.0
2015-Jul-25 04:31N 35°33' E 140°05'8 7.9
2015-Jul-25 03:33N 35°30' E 139°56'1111.3
2015-Jul-25 02:33N 35°23' E 139°46'1010.4
2015-Jul-25 01:33N 35°13' E 139°47'1111.2
2015-Jul-25 00:33N 35°03' E 139°41'11 0.3
2015-Jul-23 11:29N 34°60' E 139°27'910.1
2015-Jul-23 10:34N 35°05' E 139°37'1010.4
2015-Jul-23 09:34N 35°12' E 139°46'1010.0
2015-Jul-23 08:34N 35°22' E 139°43'10 9.9
2015-Jul-23 07:34N 35°29' E 139°50'1010.1
2015-Jul-23 06:33N 35°33' E 140°02'3 2.6
2015-Jul-23 05:33N 35°33' E 140°05'0 0.0
2015-Jul-23 04:21N 35°33' E 140°05'0 0.0
2015-Jul-23 03:30N 35°33' E 140°05'0 0.0
2015-Jul-23 02:27N 35°33' E 140°05'1 1.0
2015-Jul-23 01:24N 35°34' E 140°05'0 0.0
2015-Jul-23 00:33N 35°34' E 140°05'0 0.0
2015-Jul-22 23:24N 35°34' E 140°05'0 0.0
2015-Jul-22 22:30N 35°34' E 140°05'0 0.0
2015-Jul-22 21:27N 35°34' E 140°05'0 0.0
2015-Jul-22 20:12N 35°34' E 140°05'0 0.0
2015-Jul-22 19:30N 35°34' E 140°05'0 0.0
2015-Jul-22 18:24N 35°34' E 140°05'0 0.0
2015-Jul-22 17:24N 35°34' E 140°05'0 0.0
2015-Jul-22 16:24N 35°34' E 140°05'0 0.0
2015-Jul-22 15:33N 35°34' E 140°05'0 0.0
2015-Jul-22 14:33N 35°34' E 140°05'0 0.0
2015-Jul-22 13:24N 35°34' E 140°05'0 0.0
2015-Jul-22 12:30N 35°34' E 140°05'0 0.0
2015-Jul-22 11:24N 35°34' E 140°05'0 0.0
2015-Jul-22 10:30N 35°34' E 140°05'0 0.0
2015-Jul-22 09:27N 35°34' E 140°05'0 0.0
2015-Jul-22 08:30N 35°34' E 140°05'0 0.0
2015-Jul-22 06:30N 35°34' E 140°05'0 0.0
2015-Jul-22 05:33N 35°34' E 140°05'0 0.0
2015-Jul-22 04:33N 35°34' E 140°05'4 4.1
2015-Jul-22 03:32N 35°34' E 140°00'4 4.3
2015-Jul-22 02:31N 35°33' E 140°05'0 0.0
2015-Jul-22 01:25N 35°33' E 140°05'0 0.0
2015-Jul-22 00:31N 35°33' E 140°05'1 0.8
2015-Jul-21 23:33N 35°33' E 140°05'7 7.4
2015-Jul-21 22:33N 35°30' E 139°56'1111.4
2015-Jul-21 21:33N 35°23' E 139°46'1110.8
2015-Jul-21 20:33N 35°12' E 139°46'1211.0
2015-Jul-21 19:30N 35°03' E 139°38'1313.7
2015-Jul-21 18:31N 34°54' E 139°25'224 6.4
2015-Jul-20 07:28N 33°59' E 135°01'910.2
2015-Jul-20 06:33N 34°08' E 134°60'1210.9
2015-Jul-20 05:30N 34°19' E 134°59'1010.8
2015-Jul-20 04:33N 34°26' E 135°08'1111.1
2015-Jul-20 03:33N 34°33' E 135°19'6 1.1
2015-Jul-19 22:33N 34°34' E 135°26'3 2.0
2015-Jul-19 21:16N 34°36' E 135°23'0 0.1
2015-Jul-19 20:28N 34°36' E 135°23'0 0.0
2015-Jul-19 19:22N 34°36' E 135°23'0 0.0
2015-Jul-19 18:22N 34°36' E 135°23'0 0.0
2015-Jul-19 16:28N 34°36' E 135°23'1 1.4
2015-Jul-19 15:33N 34°35' E 135°22'1111.5
2015-Jul-19 14:33N 34°27' E 135°12'1512.0
2015-Jul-19 13:20N 34°17' E 134°59'1012.7
2015-Jul-19 12:32N 34°07' E 135°01'231 8.2
2015-Jul-18 08:20N 35°03' E 139°33'810.1
2015-Jul-18 07:33N 35°07' E 139°42'9 9.3
2015-Jul-18 06:33N 35°15' E 139°46'9 9.4
2015-Jul-18 05:33N 35°25' E 139°43'1010.4
2015-Jul-18 04:33N 35°30' E 139°54'9 9.5
2015-Jul-18 03:33N 35°33' E 140°05'0 0.4
2015-Jul-18 02:22N 35°34' E 140°05'0 0.0
2015-Jul-18 01:22N 35°34' E 140°05'0 0.1
2015-Jul-18 00:29N 35°34' E 140°05'0 0.0
2015-Jul-17 23:29N 35°34' E 140°05'0 0.0
2015-Jul-17 22:26N 35°34' E 140°05'0 0.0
2015-Jul-17 21:29N 35°34' E 140°05'0 0.0
2015-Jul-17 20:29N 35°34' E 140°05'0 0.0
2015-Jul-17 19:29N 35°34' E 140°05'0 0.0
2015-Jul-17 18:20N 35°34' E 140°05'0 0.0
2015-Jul-17 15:28N 35°33' E 140°05'0 0.0
2015-Jul-17 14:17N 35°34' E 140°05'  

Dump ship's entire track history